createdAt,value
2022-11-29T00:02:22.223Z,88.84
2022-11-29T00:04:49.059Z,88.72
2022-11-29T00:07:15.683Z,89.00
2022-11-29T00:09:42.346Z,88.75
2022-11-29T00:12:13.396Z,88.95
2022-11-29T00:14:41.391Z,88.78
2022-11-29T00:17:08.292Z,88.62
2022-11-29T00:19:37.067Z,88.71
2022-11-29T00:22:04.476Z,89.10
2022-11-29T00:24:34.656Z,88.87
2022-11-29T00:27:01.320Z,89.07
2022-11-29T00:29:30.212Z,89.00
2022-11-29T00:31:56.891Z,88.90
2022-11-29T00:34:23.887Z,89.05
2022-11-29T00:36:50.485Z,88.99
2022-11-29T00:39:17.174Z,89.15
2022-11-29T00:41:43.892Z,89.12
2022-11-29T00:44:16.811Z,88.89
2022-11-29T00:46:48.286Z,88.99
2022-11-29T00:49:15.504Z,88.72
2022-11-29T00:51:42.149Z,88.79
2022-11-29T00:54:08.895Z,88.82
2022-11-29T00:56:35.525Z,88.84
2022-11-29T00:59:02.134Z,88.73
2022-11-29T01:01:28.964Z,88.96
2022-11-29T01:03:56.970Z,88.96
2022-11-29T01:06:23.622Z,88.91
2022-11-29T01:08:50.701Z,89.19
2022-11-29T01:11:19.312Z,89.05
2022-11-29T01:13:47.099Z,88.77
2022-11-29T01:16:15.227Z,88.99
2022-11-29T01:18:42.762Z,88.93
2022-11-29T01:21:14.674Z,88.74
2022-11-29T01:23:42.030Z,88.74
2022-11-29T01:26:10.236Z,89.28
2022-11-29T01:28:37.996Z,89.25
2022-11-29T01:31:09.104Z,88.83
2022-11-29T01:33:36.631Z,89.17
2022-11-29T01:36:04.468Z,89.15
2022-11-29T01:38:32.941Z,89.05
2022-11-29T01:41:01.329Z,89.18
2022-11-29T01:43:29.370Z,89.12
2022-11-29T01:45:56.356Z,89.13
2022-11-29T01:48:27.460Z,89.04
2022-11-29T01:50:58.155Z,88.98
2022-11-29T01:53:25.006Z,89.06
2022-11-29T01:55:58.836Z,88.99
2022-11-29T01:58:29.955Z,88.83
2022-11-29T02:00:57.876Z,88.70
2022-11-29T02:03:24.909Z,89.00
2022-11-29T02:05:53.516Z,88.60
2022-11-29T02:08:23.552Z,89.17
2022-11-29T02:11:05.959Z,88.98
2022-11-29T02:13:40.447Z,89.06
2022-11-29T02:16:16.538Z,88.60
2022-11-29T02:18:52.547Z,88.82
2022-11-29T02:21:38.756Z,89.09
2022-11-29T02:24:55.221Z,88.99
2022-11-29T02:27:54.631Z,88.79
2022-11-29T02:30:32.464Z,89.08
2022-11-29T02:33:25.941Z,88.74
2022-11-29T02:36:16.292Z,88.77
2022-11-29T02:39:00.614Z,88.96
2022-11-29T02:41:44.747Z,89.15
2022-11-29T02:44:51.493Z,89.05
2022-11-29T02:47:27.409Z,88.94
2022-11-29T02:50:13.741Z,88.96
2022-11-29T02:52:48.425Z,88.89
2022-11-29T02:55:21.447Z,88.99
2022-11-29T02:57:57.240Z,89.23
2022-11-29T03:00:24.256Z,88.98
2022-11-29T03:02:58.349Z,88.99
2022-11-29T03:05:40.687Z,88.86
2022-11-29T03:08:16.544Z,89.10
2022-11-29T03:10:56.435Z,88.93
2022-11-29T03:13:38.058Z,88.96
2022-11-29T03:16:12.365Z,88.98
2022-11-29T03:18:56.691Z,88.99
2022-11-29T03:21:38.873Z,89.37
2022-11-29T03:24:13.287Z,89.48
2022-11-29T03:26:44.888Z,89.31
2022-11-29T03:29:22.785Z,89.38
2022-11-29T03:31:56.328Z,89.37
2022-11-29T03:34:39.712Z,89.35
2022-11-29T03:37:15.532Z,89.11
2022-11-29T03:39:50.688Z,89.25
2022-11-29T03:42:24.438Z,88.87
2022-11-29T03:44:59.669Z,89.03
2022-11-29T03:47:31.967Z,89.31
2022-11-29T03:50:04.553Z,89.28
2022-11-29T03:52:38.765Z,89.40
2022-11-29T03:55:24.849Z,89.29
2022-11-29T03:58:05.773Z,89.19
2022-11-29T04:00:44.997Z,89.26
2022-11-29T04:03:42.119Z,89.17
2022-11-29T04:06:23.967Z,88.89
2022-11-29T04:09:18.146Z,88.98
2022-11-29T04:12:04.627Z,88.94
2022-11-29T04:14:52.208Z,88.78
2022-11-29T04:17:59.593Z,88.91
2022-11-29T04:20:47.954Z,89.06
2022-11-29T04:23:42.144Z,89.16
2022-11-29T04:26:53.711Z,88.98
2022-11-29T04:29:43.865Z,89.09
2022-11-29T04:32:26.772Z,88.94
2022-11-29T04:35:21.851Z,88.92
2022-11-29T04:38:10.130Z,88.92
2022-11-29T04:40:52.086Z,88.99
2022-11-29T04:43:41.439Z,88.79
2022-11-29T04:46:27.052Z,89.27
2022-11-29T04:49:15.628Z,89.20
2022-11-29T04:52:11.193Z,89.33
2022-11-29T04:54:47.412Z,89.02
2022-11-29T04:57:32.281Z,89.06
2022-11-29T05:00:10.183Z,89.20
2022-11-29T05:02:45.946Z,89.19
2022-11-29T05:05:24.554Z,88.99
2022-11-29T05:08:08.274Z,89.12
2022-11-29T05:10:39.403Z,88.87
2022-11-29T05:13:12.570Z,89.02
2022-11-29T05:16:00.314Z,89.00
2022-11-29T05:18:53.363Z,88.94
2022-11-29T05:21:29.269Z,88.73
2022-11-29T05:24:09.224Z,88.95
2022-11-29T05:26:48.303Z,88.52
2022-11-29T05:29:24.391Z,88.74
2022-11-29T05:32:03.250Z,88.74
2022-11-29T05:34:49.786Z,88.96
2022-11-29T05:37:27.975Z,88.80
2022-11-29T05:40:07.984Z,88.79
2022-11-29T05:43:06.665Z,88.84
2022-11-29T05:45:40.664Z,89.06
2022-11-29T05:48:17.490Z,89.05
2022-11-29T05:50:49.260Z,88.83
2022-11-29T05:53:21.089Z,89.10
2022-11-29T05:55:55.627Z,89.17
2022-11-29T05:58:30.921Z,89.17
2022-11-29T06:01:07.608Z,88.83
2022-11-29T06:03:38.986Z,89.01
2022-11-29T06:06:14.652Z,88.90
2022-11-29T06:08:48.863Z,89.13
2022-11-29T06:11:22.590Z,89.02
2022-11-29T06:14:01.111Z,89.06
2022-11-29T06:16:52.499Z,88.84
2022-11-29T06:19:49.124Z,88.96
2022-11-29T06:22:35.465Z,89.02
2022-11-29T06:25:17.229Z,88.85
2022-11-29T06:27:59.110Z,89.01
2022-11-29T06:30:30.483Z,89.33
2022-11-29T06:33:03.548Z,89.07
2022-11-29T06:35:45.926Z,89.13
2022-11-29T06:38:20.871Z,88.81
2022-11-29T06:40:50.149Z,88.87
2022-11-29T06:43:17.894Z,89.13
2022-11-29T06:45:49.133Z,89.02
2022-11-29T06:48:21.347Z,89.10
2022-11-29T06:50:58.727Z,88.85
2022-11-29T06:53:39.386Z,89.22
2022-11-29T06:56:21.616Z,89.16
2022-11-29T06:58:57.441Z,89.21
2022-11-29T07:01:36.175Z,89.07
2022-11-29T07:04:16.791Z,89.15
2022-11-29T07:06:45.472Z,89.03
2022-11-29T07:09:16.478Z,88.92
2022-11-29T07:11:44.245Z,89.21
2022-11-29T07:14:11.564Z,89.26
2022-11-29T07:16:46.364Z,89.40
2022-11-29T07:19:19.620Z,88.91
2022-11-29T07:21:58.881Z,88.87
2022-11-29T07:24:38.287Z,89.28
2022-11-29T07:27:15.692Z,89.02
2022-11-29T07:29:56.336Z,88.93
2022-11-29T07:32:34.482Z,88.93
2022-11-29T07:35:08.735Z,89.07
2022-11-29T07:37:53.732Z,89.20
2022-11-29T07:40:26.153Z,89.17
2022-11-29T07:43:06.284Z,88.80
2022-11-29T07:45:36.159Z,89.25
2022-11-29T07:48:04.786Z,89.13
2022-11-29T07:50:31.891Z,89.27
2022-11-29T07:53:00.328Z,89.17
2022-11-29T07:55:27.599Z,89.07
2022-11-29T07:57:54.281Z,89.30
2022-11-29T08:00:21.857Z,89.01
2022-11-29T08:02:49.982Z,89.19
2022-11-29T08:05:16.845Z,89.04
2022-11-29T08:07:43.715Z,89.27
2022-11-29T08:10:14.307Z,88.95
2022-11-29T08:12:43.121Z,89.09
2022-11-29T08:15:10.169Z,89.18
2022-11-29T08:17:37.239Z,89.33
2022-11-29T08:20:05.065Z,89.30
2022-11-29T08:22:31.788Z,89.19
2022-11-29T08:24:59.887Z,88.87
2022-11-29T08:27:28.177Z,89.06
2022-11-29T08:29:54.843Z,88.92
2022-11-29T08:32:21.533Z,89.11
2022-11-29T08:34:48.337Z,89.26
2022-11-29T08:37:15.214Z,89.05
2022-11-29T08:39:41.828Z,89.16
2022-11-29T08:42:08.517Z,89.00
2022-11-29T08:44:36.677Z,89.25
2022-11-29T08:47:22.139Z,88.99
2022-11-29T08:50:03.870Z,89.02
2022-11-29T08:52:50.234Z,89.33
2022-11-29T08:55:17.432Z,89.20
2022-11-29T08:57:44.173Z,89.10
2022-11-29T09:00:14.026Z,89.25
2022-11-29T09:02:40.684Z,89.16
2022-11-29T09:05:09.243Z,89.42
2022-11-29T09:07:35.949Z,89.17
2022-11-29T09:10:05.487Z,89.49
2022-11-29T09:12:32.745Z,89.19
2022-11-29T09:14:59.594Z,89.41
2022-11-29T09:17:27.823Z,89.48
2022-11-29T09:19:54.425Z,89.19
2022-11-29T09:22:21.074Z,89.34
2022-11-29T09:24:47.904Z,89.32
2022-11-29T09:27:14.793Z,89.14
2022-11-29T09:29:41.458Z,89.18
2022-11-29T09:32:08.266Z,89.09
2022-11-29T09:34:36.836Z,89.44
2022-11-29T09:37:05.182Z,88.99
2022-11-29T09:39:31.952Z,89.54
2022-11-29T09:42:21.753Z,89.36
2022-11-29T09:45:01.421Z,89.40
2022-11-29T09:47:42.510Z,89.29
2022-11-29T09:50:23.480Z,89.27
2022-11-29T09:52:58.103Z,89.48
2022-11-29T09:55:43.111Z,89.51
2022-11-29T09:58:15.356Z,89.06
2022-11-29T10:00:48.573Z,89.48
2022-11-29T10:03:23.323Z,89.18
2022-11-29T10:05:57.523Z,89.37
2022-11-29T10:08:29.154Z,89.60
2022-11-29T10:11:10.383Z,89.33
2022-11-29T10:13:39.353Z,89.31
2022-11-29T10:16:12.396Z,89.26
2022-11-29T10:18:48.133Z,89.20
2022-11-29T10:21:20.427Z,89.23
2022-11-29T10:23:50.391Z,89.15
2022-11-29T10:26:18.160Z,89.16
2022-11-29T10:28:47.482Z,89.60
2022-11-29T10:31:22.221Z,89.31
2022-11-29T10:33:50.226Z,89.46
2022-11-29T10:36:26.081Z,89.49
2022-11-29T10:38:59.038Z,89.48
2022-11-29T10:41:26.892Z,89.31
2022-11-29T10:43:56.223Z,89.26
2022-11-29T10:46:31.047Z,89.10
2022-11-29T10:48:59.419Z,88.96
2022-11-29T10:51:28.757Z,89.32
2022-11-29T10:53:56.725Z,89.11
2022-11-29T10:56:29.573Z,89.19
2022-11-29T10:58:58.649Z,89.15
2022-11-29T11:01:28.992Z,89.13
2022-11-29T11:03:58.542Z,89.36
2022-11-29T11:06:41.265Z,89.12
2022-11-29T11:09:19.396Z,88.98
2022-11-29T11:11:51.850Z,89.13
2022-11-29T11:14:22.212Z,89.41
2022-11-29T11:16:49.312Z,89.19
2022-11-29T11:19:29.432Z,89.14
2022-11-29T11:21:59.113Z,89.16
2022-11-29T11:24:28.923Z,89.38
2022-11-29T11:26:56.445Z,89.18
2022-11-29T11:29:26.340Z,89.52
2022-11-29T11:31:56.429Z,89.26
2022-11-29T11:34:29.862Z,89.13
2022-11-29T11:39:52.160Z,89.26
2022-11-29T11:42:36.912Z,89.24
2022-11-29T11:45:19.718Z,88.84
2022-11-29T11:47:49.766Z,89.04
2022-11-29T11:50:24.927Z,89.53
2022-11-29T11:52:55.067Z,89.26
2022-11-29T11:55:34.513Z,89.47
2022-11-29T11:58:17.159Z,89.47
2022-11-29T12:01:02.838Z,89.54
2022-11-29T12:03:38.017Z,89.43
2022-11-29T12:06:45.616Z,89.23
2022-11-29T12:09:20.011Z,89.00
2022-11-29T12:11:56.456Z,89.09
2022-11-29T12:14:30.295Z,88.96
2022-11-29T12:17:05.170Z,88.96
2022-11-29T12:19:41.045Z,89.05
2022-11-29T12:22:16.300Z,88.91
2022-11-29T12:24:53.350Z,88.77
2022-11-29T12:27:21.414Z,88.99
2022-11-29T12:29:48.067Z,89.10
2022-11-29T12:32:49.387Z,88.80
2022-11-29T12:35:36.378Z,89.09
2022-11-29T12:38:12.982Z,89.06
2022-11-29T12:40:49.296Z,88.95
2022-11-29T12:43:30.401Z,88.96
2022-11-29T12:46:03.651Z,89.01
2022-11-29T12:48:39.056Z,89.09
2022-11-29T12:51:14.957Z,88.81
2022-11-29T12:53:59.320Z,88.75
2022-11-29T12:56:31.137Z,88.86
2022-11-29T12:59:20.821Z,88.91
2022-11-29T13:01:58.249Z,88.66
2022-11-29T13:04:33.408Z,88.94
2022-11-29T13:07:10.936Z,88.64
2022-11-29T13:09:58.068Z,88.97
2022-11-29T13:12:33.171Z,89.04
2022-11-29T13:15:05.428Z,88.99
2022-11-29T13:17:40.741Z,88.59
2022-11-29T13:20:31.527Z,88.70
2022-11-29T13:23:05.178Z,88.83
2022-11-29T13:25:37.341Z,88.42
2022-11-29T13:28:07.775Z,88.46
2022-11-29T13:30:37.173Z,88.60
2022-11-29T13:33:10.552Z,88.43
2022-11-29T13:35:41.972Z,88.76
2022-11-29T13:38:18.607Z,88.53
2022-11-29T13:40:58.256Z,88.44
2022-11-29T13:43:30.722Z,88.57
2022-11-29T13:46:09.302Z,88.57
2022-11-29T13:48:48.316Z,88.48
2022-11-29T13:51:41.164Z,88.73
2022-11-29T13:54:26.810Z,88.51
2022-11-29T13:57:02.293Z,88.31
2022-11-29T13:59:31.192Z,88.65
2022-11-29T14:01:59.865Z,88.68
2022-11-29T14:04:34.621Z,88.52
2022-11-29T14:07:08.264Z,88.59
2022-11-29T14:09:49.308Z,88.67
2022-11-29T14:12:40.385Z,88.74
2022-11-29T14:15:25.275Z,88.57
2022-11-29T14:17:56.543Z,88.64
2022-11-29T14:20:59.518Z,88.66
2022-11-29T14:23:42.474Z,88.60
2022-11-29T14:26:29.639Z,88.40
2022-11-29T14:29:00.203Z,88.39
2022-11-29T14:31:53.381Z,88.53
2022-11-29T14:34:39.755Z,88.59
2022-11-29T14:37:33.948Z,88.82
2022-11-29T14:40:11.359Z,88.58
2022-11-29T14:42:46.849Z,88.42
2022-11-29T14:45:24.186Z,88.73
2022-11-29T14:47:51.913Z,88.37
2022-11-29T14:50:32.094Z,88.46
2022-11-29T14:52:59.250Z,88.69
2022-11-29T14:55:35.430Z,88.72
2022-11-29T14:58:21.174Z,88.63
2022-11-29T15:01:09.722Z,88.75
2022-11-29T15:03:47.850Z,88.83
2022-11-29T15:06:24.161Z,88.62
2022-11-29T15:08:57.470Z,88.68
2022-11-29T15:11:35.565Z,88.89
2022-11-29T15:14:05.581Z,88.59
2022-11-29T15:16:50.962Z,88.61
2022-11-29T15:19:45.233Z,88.78
2022-11-29T15:22:18.224Z,88.80
2022-11-29T15:24:53.390Z,88.72
2022-11-29T15:27:21.173Z,88.77
2022-11-29T15:29:48.503Z,88.95
2022-11-29T15:32:22.424Z,88.73
2022-11-29T15:34:53.788Z,88.92
2022-11-29T15:37:39.132Z,88.85
2022-11-29T15:40:11.644Z,88.70
2022-11-29T15:42:40.225Z,88.67
2022-11-29T15:45:28.613Z,88.83
2022-11-29T15:48:09.818Z,88.76
2022-11-29T15:50:39.590Z,88.91
2022-11-29T15:53:13.448Z,88.44
2022-11-29T15:55:40.366Z,88.66
2022-11-29T15:58:11.831Z,88.62
2022-11-29T16:00:41.036Z,88.79
2022-11-29T16:03:18.338Z,88.58
2022-11-29T16:05:51.544Z,88.86
2022-11-29T16:08:21.101Z,88.51
2022-11-29T16:10:51.626Z,88.43
2022-11-29T16:13:37.675Z,88.54
2022-11-29T16:16:13.612Z,88.72
2022-11-29T16:18:41.928Z,88.78
2022-11-29T16:21:24.444Z,88.71
2022-11-29T16:23:53.369Z,88.53
2022-11-29T16:26:23.143Z,88.76
2022-11-29T16:28:51.934Z,88.75
2022-11-29T16:31:20.574Z,88.75
2022-11-29T16:33:49.240Z,88.63
2022-11-29T16:36:20.860Z,88.59
2022-11-29T16:38:49.954Z,88.64
2022-11-29T16:41:32.479Z,88.69
2022-11-29T16:44:03.130Z,88.69
2022-11-29T16:46:39.779Z,88.82
2022-11-29T16:49:33.746Z,88.81
2022-11-29T16:52:01.538Z,88.56
2022-11-29T16:54:33.820Z,88.71
2022-11-29T16:57:05.257Z,88.59
2022-11-29T16:59:32.561Z,88.63
2022-11-29T17:01:59.482Z,88.80
2022-11-29T17:04:26.510Z,88.94
2022-11-29T17:06:54.852Z,88.58
2022-11-29T17:09:27.767Z,88.76
2022-11-29T17:11:55.558Z,88.80
2022-11-29T17:14:23.697Z,88.86
2022-11-29T17:16:51.877Z,88.94
2022-11-29T17:19:20.516Z,89.03
2022-11-29T17:21:47.601Z,88.77
2022-11-29T17:24:16.794Z,88.83
2022-11-29T17:26:44.332Z,88.83
2022-11-29T17:29:11.636Z,88.89
2022-11-29T17:31:40.156Z,88.98
2022-11-29T17:34:07.182Z,89.06
2022-11-29T17:36:33.836Z,88.98
2022-11-29T17:39:01.193Z,89.04
2022-11-29T17:41:28.532Z,88.92
2022-11-29T17:43:56.672Z,88.96
2022-11-29T17:46:26.132Z,88.90
2022-11-29T17:48:54.896Z,88.96
2022-11-29T17:51:50.597Z,88.83
2022-11-29T17:54:10.124Z,88.84
2022-11-29T17:56:36.790Z,88.83
2022-11-29T17:59:04.937Z,88.96
2022-11-29T18:01:34.687Z,88.97
2022-11-29T18:04:04.408Z,88.84
2022-11-29T18:06:34.696Z,88.74
2022-11-29T18:09:02.662Z,89.05
2022-11-29T18:11:38.807Z,88.98
2022-11-29T18:14:11.217Z,88.99
2022-11-29T18:16:38.505Z,88.70
2022-11-29T18:19:09.100Z,88.97
2022-11-29T18:21:39.141Z,88.74
2022-11-29T18:24:07.414Z,88.82
2022-11-29T18:26:36.909Z,89.03
2022-11-29T18:29:05.075Z,89.23
2022-11-29T18:31:33.344Z,89.15
2022-11-29T18:34:01.680Z,88.79
2022-11-29T18:36:32.513Z,88.86
2022-11-29T18:39:00.398Z,89.12
2022-11-29T18:41:29.134Z,89.15
2022-11-29T18:43:58.723Z,89.36
2022-11-29T18:46:25.884Z,88.94
2022-11-29T18:48:52.962Z,88.98
2022-11-29T18:51:20.334Z,88.93
2022-11-29T18:53:48.364Z,89.08
2022-11-29T18:56:16.894Z,89.01
2022-11-29T18:58:44.184Z,89.22
2022-11-29T19:01:12.835Z,89.02
2022-11-29T19:03:42.139Z,89.31
2022-11-29T19:06:12.466Z,88.94
2022-11-29T19:08:39.438Z,88.95
2022-11-29T19:11:08.728Z,89.04
2022-11-29T19:13:35.877Z,88.93
2022-11-29T19:16:03.764Z,88.94
2022-11-29T19:18:30.849Z,89.30
2022-11-29T19:21:04.562Z,89.17
2022-11-29T19:23:31.488Z,89.36
2022-11-29T19:26:02.221Z,89.25
2022-11-29T19:28:30.602Z,89.32
2022-11-29T19:30:57.706Z,89.29
2022-11-29T19:33:24.651Z,89.16
2022-11-29T19:35:51.225Z,89.33
2022-11-29T19:38:17.991Z,89.32
2022-11-29T19:40:44.631Z,89.23
2022-11-29T19:43:11.264Z,89.03
2022-11-29T19:45:40.427Z,89.04
2022-11-29T19:48:07.216Z,89.21
2022-11-29T19:50:33.821Z,89.15
2022-11-29T19:53:00.626Z,89.31
2022-11-29T19:55:27.372Z,89.35
2022-11-29T19:57:57.221Z,89.09
2022-11-29T20:00:24.333Z,89.09
2022-11-29T20:02:52.377Z,89.32
2022-11-29T20:05:19.100Z,89.23
2022-11-29T20:07:45.759Z,89.29
2022-11-29T20:10:12.815Z,88.93
2022-11-29T20:12:42.758Z,89.11
2022-11-29T20:15:09.712Z,89.13
2022-11-29T20:17:36.520Z,89.22
2022-11-29T20:20:05.570Z,89.08
2022-11-29T20:22:32.244Z,89.39
2022-11-29T20:24:58.902Z,89.29
2022-11-29T20:27:25.758Z,89.40
2022-11-29T20:29:52.594Z,89.40
2022-11-29T20:32:19.391Z,89.18
2022-11-29T20:34:46.764Z,89.03
2022-11-29T20:37:30.164Z,89.34
2022-11-29T20:40:00.453Z,89.28
2022-11-29T20:42:50.456Z,88.99
2022-11-29T20:45:17.842Z,88.97
2022-11-29T20:47:53.040Z,89.20
2022-11-29T20:50:23.686Z,89.18
2022-11-29T20:53:06.833Z,88.92
2022-11-29T20:55:33.687Z,88.95
2022-11-29T20:58:00.409Z,88.97
2022-11-29T21:00:27.069Z,88.64
2022-11-29T21:02:53.829Z,88.89
2022-11-29T21:05:20.562Z,89.19
2022-11-29T21:07:47.320Z,89.07
2022-11-29T21:10:15.536Z,88.95
2022-11-29T21:12:42.973Z,88.82
2022-11-29T21:15:11.131Z,89.10
2022-11-29T21:17:38.519Z,88.94
2022-11-29T21:20:06.653Z,88.99
2022-11-29T21:22:40.630Z,88.85
2022-11-29T21:25:15.530Z,88.84
2022-11-29T21:27:44.167Z,89.11
2022-11-29T21:30:17.822Z,89.21
2022-11-29T21:32:45.737Z,89.09
2022-11-29T21:35:12.416Z,89.16
2022-11-29T21:37:39.250Z,88.90
2022-11-29T21:40:07.692Z,88.89
2022-11-29T21:42:34.373Z,89.06
2022-11-29T21:45:02.533Z,89.07
2022-11-29T21:47:30.504Z,89.09
2022-11-29T21:49:57.348Z,89.07
2022-11-29T21:52:23.994Z,89.02
2022-11-29T21:54:50.660Z,89.06
2022-11-29T21:57:17.492Z,88.81
2022-11-29T21:59:44.169Z,89.05
2022-11-29T22:02:12.553Z,88.69
2022-11-29T22:04:39.231Z,88.79
2022-11-29T22:07:05.805Z,88.81
2022-11-29T22:09:32.519Z,88.84
2022-11-29T22:11:59.342Z,88.94
2022-11-29T22:14:25.994Z,89.04
2022-11-29T22:16:54.632Z,89.15
2022-11-29T22:19:24.490Z,88.89
2022-11-29T22:21:53.555Z,89.26
2022-11-29T22:24:22.053Z,89.09
2022-11-29T22:26:49.818Z,88.87
2022-11-29T22:29:17.089Z,89.24
2022-11-29T22:31:45.715Z,89.30
2022-11-29T22:34:12.831Z,89.45
2022-11-29T22:36:41.585Z,89.54
2022-11-29T22:39:09.237Z,89.31
2022-11-29T22:41:38.636Z,89.49
2022-11-29T22:44:06.074Z,89.29
2022-11-29T22:46:35.399Z,88.99
2022-11-29T22:49:03.174Z,89.43
2022-11-29T22:51:31.497Z,89.48
2022-11-29T22:54:01.309Z,89.43
2022-11-29T22:56:30.195Z,89.07
2022-11-29T22:58:57.070Z,89.21
2022-11-29T23:01:25.214Z,89.09
2022-11-29T23:04:00.705Z,88.90
2022-11-29T23:06:29.320Z,89.00
2022-11-29T23:08:57.856Z,88.94
2022-11-29T23:11:27.621Z,88.57
2022-11-29T23:13:55.236Z,88.79
2022-11-29T23:16:25.484Z,88.78
2022-11-29T23:18:53.176Z,88.47
2022-11-29T23:21:21.666Z,88.80
2022-11-29T23:23:53.048Z,88.75
2022-11-29T23:26:25.976Z,88.57
2022-11-29T23:28:53.917Z,88.18
2022-11-29T23:31:22.198Z,88.43
2022-11-29T23:33:49.305Z,88.57
2022-11-29T23:36:16.732Z,88.25
2022-11-29T23:38:43.979Z,88.35
2022-11-29T23:41:11.762Z,87.98
2022-11-29T23:43:41.574Z,87.96
2022-11-29T23:46:12.223Z,87.95
2022-11-29T23:48:38.980Z,87.97
2022-11-29T23:51:06.025Z,88.05
2022-11-29T23:53:33.346Z,87.94
2022-11-29T23:56:01.985Z,88.01
2022-11-29T23:58:30.217Z,87.80
